Time;durP1;ratioP1;P1;durP2;ratioP2;P2;SDS_P1;SDS_P2;PMS_P1;PMS_P2;Temp;Humidity;BMP_temperature;BMP_pressure;BME280_temperature;BME280_humidity;BME280_pressure;Samples;Min_cycle;Max_cycle;Signal;HPM_P1;HPM_P2
2022/09/02 00:01:53;;;;;;;4.03;1.70;;;;;;;16.88;59.18;100196.41;4979303;28;20729;-66
2022/09/02 00:04:21;;;;;;;2.60;1.60;;;;;;;16.89;59.25;100196.31;4959616;28;20675;-67
2022/09/02 00:06:48;;;;;;;2.40;1.77;;;;;;;16.96;58.64;100193.28;4969275;28;20191;-65
2022/09/02 00:09:17;;;;;;;2.10;1.80;;;;;;;16.86;59.62;100185.34;4962726;28;20234;-66
2022/09/02 00:11:44;;;;;;;2.03;1.70;;;;;;;16.92;59.17;100187.50;4973784;28;20237;-68
2022/09/02 00:14:14;;;;;;;2.67;1.90;;;;;;;16.91;59.62;100188.41;4979158;28;20192;-68
2022/09/02 00:16:50;;;;;;;1.80;1.57;;;;;;;16.82;59.55;100183.91;4966912;28;20219;-66
2022/09/02 00:19:23;;;;;;;2.00;1.70;;;;;;;16.86;59.21;100187.94;4952859;28;20173;-67
2022/09/02 00:21:49;;;;;;;3.43;1.43;;;;;;;16.93;59.35;100184.75;4976898;28;20584;-67
2022/09/02 00:24:16;;;;;;;2.10;1.83;;;;;;;16.98;59.46;100178.34;4970030;28;20191;-66
2022/09/02 00:26:42;;;;;;;2.57;1.60;;;;;;;16.94;59.65;100181.22;4984499;28;20684;-66
2022/09/02 00:29:07;;;;;;;3.60;1.90;;;;;;;16.89;59.64;100183.34;4958807;28;20678;-66
2022/09/02 00:31:32;;;;;;;2.57;1.50;;;;;;;16.86;59.70;100180.16;4990778;28;20218;-66
2022/09/02 00:33:59;;;;;;;3.83;1.70;;;;;;;16.91;59.36;100181.44;4980596;28;20231;-69
2022/09/02 00:36:25;;;;;;;2.80;1.60;;;;;;;16.93;59.63;100173.53;5003992;28;20289;-66
2022/09/02 00:38:51;;;;;;;3.50;1.60;;;;;;;16.89;59.56;100172.09;4991438;28;20199;-66
2022/09/02 00:41:19;;;;;;;4.00;1.63;;;;;;;16.82;60.17;100170.94;4991467;28;20245;-68
2022/09/02 00:43:49;;;;;;;3.20;1.87;;;;;;;16.79;60.21;100172.00;4997706;28;20202;-67
2022/09/02 00:46:21;;;;;;;2.70;1.60;;;;;;;16.79;59.90;100172.00;4987475;28;20199;-67
2022/09/02 00:48:54;;;;;;;3.00;1.67;;;;;;;16.76;60.29;100177.47;4989576;28;20180;-66
2022/09/02 00:51:21;;;;;;;2.43;1.70;;;;;;;16.88;60.11;100171.28;4992249;28;20233;-67
2022/09/02 00:53:48;;;;;;;1.93;1.67;;;;;;;16.84;60.00;100172.47;4987307;28;20183;-66
2022/09/02 00:56:22;;;;;;;1.67;1.57;;;;;;;16.83;60.23;100168.22;4978047;28;20250;-66
2022/09/02 00:58:50;;;;;;;2.43;1.40;;;;;;;16.76;60.78;100169.66;5006988;28;20214;-66
2022/09/02 01:01:16;;;;;;;4.60;1.50;;;;;;;16.70;60.96;100163.16;4992809;28;20266;-66
2022/09/02 01:03:42;;;;;;;2.53;1.70;;;;;;;16.70;61.08;100165.78;4993065;28;20258;-66
2022/09/02 01:06:14;;;;;;;3.67;1.40;;;;;;;16.70;61.46;100157.16;4990568;28;20190;-67
2022/09/02 01:08:44;;;;;;;2.80;1.60;;;;;;;16.69;61.53;100166.72;4987689;28;20187;-66
2022/09/02 01:11:11;;;;;;;3.17;1.40;;;;;;;16.62;61.19;100162.94;4980779;28;20226;-67
2022/09/02 01:13:41;;;;;;;4.10;1.93;;;;;;;16.62;61.35;100163.78;5004286;28;20183;-66
2022/09/02 01:16:23;;;;;;;3.90;1.83;;;;;;;16.48;62.33;100158.84;4990938;28;20692;-66
2022/09/02 01:18:52;;;;;;;3.43;1.63;;;;;;;16.41;62.47;100160.28;5004814;28;20210;-66
2022/09/02 01:21:18;;;;;;;2.90;1.33;;;;;;;16.45;63.00;100159.09;5004034;28;20285;-66
2022/09/02 01:23:45;;;;;;;1.77;1.50;;;;;;;16.53;63.04;100161.09;5001407;28;20191;-67
2022/09/02 01:26:11;;;;;;;2.80;1.67;;;;;;;16.47;62.78;100154.59;4990860;28;20188;-67
2022/09/02 01:28:36;;;;;;;1.77;1.63;;;;;;;16.45;63.25;100164.28;4986475;28;20274;-66
2022/09/02 01:31:02;;;;;;;2.90;1.60;;;;;;;16.31;63.79;100160.19;5000973;28;20284;-66
2022/09/02 01:33:28;;;;;;;3.43;1.50;;;;;;;16.24;64.45;100161.59;5007250;28;20171;-66
2022/09/02 01:35:54;;;;;;;2.67;1.53;;;;;;;16.11;64.67;100159.97;5006995;28;20213;-66
2022/09/02 01:38:21;;;;;;;3.23;1.80;;;;;;;16.07;65.17;100163.72;4984093;28;20188;-67
2022/09/02 01:40:46;;;;;;;1.50;1.40;;;;;;;16.01;65.04;100161.59;4988739;28;20317;-66
2022/09/02 01:43:16;;;;;;;4.17;2.00;;;;;;;16.09;65.65;100161.03;4991081;28;20184;-66
2022/09/02 01:45:44;;;;;;;1.97;1.50;;;;;;;16.05;64.92;100160.44;4988000;28;20642;-67
2022/09/02 01:48:12;;;;;;;4.67;1.80;;;;;;;16.06;65.32;100159.50;4995060;28;20302;-66
2022/09/02 01:50:41;;;;;;;2.03;1.17;;;;;;;16.02;65.62;100158.06;4984063;28;20264;-66
2022/09/02 01:53:07;;;;;;;2.80;1.57;;;;;;;16.01;65.79;100156.41;4998736;28;20187;-66
2022/09/02 01:55:33;;;;;;;1.60;1.50;;;;;;;16.01;65.88;100148.59;4988306;28;20206;-66
2022/09/02 01:57:59;;;;;;;2.37;1.83;;;;;;;16.02;65.88;100150.25;4994754;28;20294;-66
2022/09/02 02:00:25;;;;;;;4.90;1.43;;;;;;;15.93;66.24;100145.78;4976441;28;20674;-67
2022/09/02 02:02:50;;;;;;;1.53;1.43;;;;;;;15.91;66.82;100148.47;4990983;28;20206;-66
2022/09/02 02:05:16;;;;;;;3.40;1.70;;;;;;;15.79;66.95;100150.22;4993306;28;20183;-66
2022/09/02 02:07:43;;;;;;;7.20;1.60;;;;;;;15.79;67.23;100145.03;4995154;28;20647;-66
2022/09/02 02:10:10;;;;;;;2.60;1.57;;;;;;;15.64;68.26;100148.78;4985785;28;20184;-66
2022/09/02 02:12:37;;;;;;;6.83;1.60;;;;;;;15.70;68.85;100150.09;5015154;28;20548;-66
2022/09/02 02:15:09;;;;;;;4.33;1.63;;;;;;;15.76;67.94;100147.84;4996292;28;20211;-66
2022/09/02 02:17:34;;;;;;;1.60;1.50;;;;;;;15.67;68.20;100151.16;4995010;28;20194;-66
2022/09/02 02:20:00;;;;;;;2.37;1.70;;;;;;;15.63;68.55;100154.94;4991124;28;20188;-66
2022/09/02 02:22:26;;;;;;;3.17;2.00;;;;;;;15.56;68.71;100158.91;4979646;28;20305;-66
2022/09/02 02:24:52;;;;;;;1.60;1.50;;;;;;;15.66;68.53;100152.09;4987774;28;20187;-66
2022/09/02 02:27:17;;;;;;;3.90;1.67;;;;;;;15.64;68.41;100151.38;4994696;28;20722;-66
2022/09/02 02:29:42;;;;;;;2.20;1.57;;;;;;;15.58;68.41;100151.81;4994621;28;20262;-66
2022/09/02 02:32:08;;;;;;;2.60;1.73;;;;;;;15.53;68.86;100156.53;4987069;28;20285;-66
2022/09/02 02:34:34;;;;;;;5.30;1.70;;;;;;;15.54;69.16;100146.06;4985702;28;20544;-66
2022/09/02 02:36:59;;;;;;;3.17;1.70;;;;;;;15.45;69.13;100142.38;4994847;28;20208;-66
2022/09/02 02:39:24;;;;;;;1.80;1.60;;;;;;;15.43;68.99;100149.47;4996408;28;20206;-65
2022/09/02 02:41:50;;;;;;;1.80;1.47;;;;;;;15.42;69.49;100147.81;4998019;28;20233;-67
2022/09/02 02:44:15;;;;;;;3.43;1.93;;;;;;;15.41;69.16;100155.69;4995006;28;20192;-66
2022/09/02 02:46:41;;;;;;;6.63;1.80;;;;;;;15.46;68.56;100140.63;4991598;28;20187;-66
2022/09/02 02:49:07;;;;;;;2.87;1.80;;;;;;;15.46;68.75;100146.63;4994125;28;20191;-66
2022/09/02 02:51:33;;;;;;;3.77;1.60;;;;;;;15.46;68.91;100138.03;4991493;28;20309;-67
2022/09/02 02:54:00;;;;;;;3.60;1.80;;;;;;;15.41;69.01;100140.97;4997550;28;20187;-66
2022/09/02 02:56:26;;;;;;;2.87;1.57;;;;;;;15.39;69.08;100145.41;4994003;28;20195;-66
2022/09/02 02:58:51;;;;;;;4.47;1.63;;;;;;;15.33;70.07;100151.06;5008997;28;20186;-65
2022/09/02 03:01:16;;;;;;;2.80;1.50;;;;;;;15.36;69.84;100144.84;4973707;28;20223;-66
2022/09/02 03:03:43;;;;;;;5.77;1.80;;;;;;;15.40;69.37;100134.13;4986341;28;20254;-65
2022/09/02 03:06:08;;;;;;;2.87;1.83;;;;;;;15.35;69.54;100146.59;4989678;28;20274;-65
2022/09/02 03:08:36;;;;;;;2.10;1.50;;;;;;;15.30;69.87;100140.94;5008999;28;20777;-65
2022/09/02 03:11:04;;;;;;;4.60;1.70;;;;;;;15.33;70.28;100138.94;4991723;28;20236;-65
2022/09/02 03:13:32;;;;;;;1.90;1.50;;;;;;;15.23;70.49;100144.91;4997086;28;20186;-65
2022/09/02 03:15:58;;;;;;;3.73;2.00;;;;;;;15.14;71.48;100142.06;4981831;28;20235;-66
2022/09/02 03:18:23;;;;;;;3.30;1.73;;;;;;;15.20;70.93;100142.56;5001605;28;20357;-65
2022/09/02 03:20:49;;;;;;;4.40;1.60;;;;;;;15.21;70.90;100144.19;4982414;28;20282;-65
2022/09/02 03:23:16;;;;;;;1.90;1.67;;;;;;;15.17;70.67;100147.03;4992678;28;20207;-65
2022/09/02 03:25:43;;;;;;;2.40;1.73;;;;;;;15.20;70.74;100143.38;4993253;28;20559;-65
2022/09/02 03:28:08;;;;;;;5.43;2.07;;;;;;;15.20;70.69;100138.19;4993090;28;20183;-65
2022/09/02 03:30:33;;;;;;;2.23;1.63;;;;;;;15.12;71.15;100138.75;4964155;28;20359;-65
2022/09/02 03:33:00;;;;;;;2.00;1.67;;;;;;;15.07;71.85;100132.25;4991999;28;20254;-65
2022/09/02 03:35:27;;;;;;;3.07;1.83;;;;;;;15.05;71.84;100141.91;4997785;28;20199;-65
2022/09/02 03:37:52;;;;;;;4.20;1.70;;;;;;;15.05;72.25;100132.38;4985578;28;20184;-65
2022/09/02 03:40:21;;;;;;;2.37;1.87;;;;;;;15.08;72.31;100136.50;4979037;28;20241;-66
2022/09/02 03:42:47;;;;;;;3.53;1.90;;;;;;;14.96;72.62;100136.47;5006026;28;20200;-66
2022/09/02 03:45:14;;;;;;;2.50;1.57;;;;;;;14.98;73.32;100136.34;4992939;28;20176;-65
2022/09/02 03:47:46;;;;;;;2.17;1.80;;;;;;;14.84;74.26;100138.16;4992051;28;20187;-66
2022/09/02 03:50:11;;;;;;;4.27;1.60;;;;;;;14.92;73.69;100135.03;4983717;28;20690;-66
2022/09/02 03:52:36;;;;;;;2.87;1.50;;;;;;;14.89;73.42;100135.25;5006992;28;20271;-65
2022/09/02 03:55:04;;;;;;;2.63;1.37;;;;;;;14.83;74.14;100128.75;4987910;28;20176;-65
2022/09/02 03:57:30;;;;;;;5.03;1.40;;;;;;;14.91;73.78;100129.94;4989107;28;20183;-66
2022/09/02 03:59:55;;;;;;;4.60;1.60;;;;;;;14.83;74.72;100130.50;4993240;28;20187;-66
2022/09/02 04:02:20;;;;;;;2.23;1.73;;;;;;;14.84;73.71;100134.75;4979315;28;20234;-66
2022/09/02 04:04:45;;;;;;;2.97;1.50;;;;;;;14.85;73.54;100131.22;4991852;28;20635;-66
2022/09/02 04:07:11;;;;;;;2.00;1.43;;;;;;;14.87;73.42;100131.94;4988322;28;20191;-66
2022/09/02 04:09:36;;;;;;;1.73;1.60;;;;;;;14.96;73.12;100126.09;4989965;28;20190;-66
2022/09/02 04:12:03;;;;;;;4.43;2.07;;;;;;;14.92;73.31;100124.69;4998996;28;20222;-66
2022/09/02 04:14:28;;;;;;;2.43;2.03;;;;;;;14.88;73.56;100127.59;4997046;28;20203;-66
2022/09/02 04:16:53;;;;;;;7.73;1.80;;;;;;;14.90;73.76;100133.50;4992742;28;20279;-66
2022/09/02 04:19:18;;;;;;;5.40;1.93;;;;;;;14.81;74.09;100127.19;4993089;28;20210;-66
2022/09/02 04:21:44;;;;;;;5.97;1.70;;;;;;;14.89;73.17;100132.66;4995691;28;20222;-66
2022/09/02 04:24:11;;;;;;;3.37;1.67;;;;;;;14.90;73.40;100130.91;4987242;28;20263;-65
2022/09/02 04:26:37;;;;;;;3.20;1.50;;;;;;;14.94;73.16;100121.97;5005292;28;20234;-66
2022/09/02 04:29:03;;;;;;;5.30;2.00;;;;;;;14.95;72.87;100126.22;4992903;28;20175;-66
2022/09/02 04:31:30;;;;;;;1.67;1.57;;;;;;;14.87;73.33;100126.75;4993174;28;20254;-65
2022/09/02 04:33:56;;;;;;;2.93;1.63;;;;;;;14.86;73.17;100132.88;4995168;28;20183;-66
2022/09/02 04:36:22;;;;;;;2.93;1.87;;;;;;;14.91;73.30;100129.94;4995562;28;20253;-65
2022/09/02 04:38:48;;;;;;;3.53;1.70;;;;;;;15.01;72.73;100118.81;4993345;28;20223;-66
2022/09/02 04:41:17;;;;;;;2.40;1.77;;;;;;;15.02;73.08;100127.44;4980875;28;20238;-65
2022/09/02 04:43:43;;;;;;;3.10;1.60;;;;;;;15.04;72.46;100135.06;4992743;28;20626;-66
2022/09/02 04:46:11;;;;;;;4.47;2.00;;;;;;;15.06;71.90;100128.00;4987071;28;20251;-65
2022/09/02 04:48:38;;;;;;;2.23;1.60;;;;;;;15.03;72.36;100130.84;4987896;28;20179;-66
2022/09/02 04:51:06;;;;;;;2.10;1.70;;;;;;;15.09;72.64;100127.78;4982618;28;20508;-65
2022/09/02 04:53:32;;;;;;;2.80;1.60;;;;;;;15.09;72.42;100131.19;4987784;28;20176;-66
2022/09/02 04:55:57;;;;;;;4.90;1.83;;;;;;;15.12;72.18;100133.56;4988634;28;20227;-65
2022/09/02 04:58:23;;;;;;;2.70;1.90;;;;;;;15.08;72.34;100131.31;4992400;28;20190;-65
2022/09/02 05:00:48;;;;;;;3.63;1.80;;;;;;;14.95;72.27;100133.97;4987897;28;20226;-65
2022/09/02 05:03:13;;;;;;;5.60;1.43;;;;;;;14.98;73.40;100134.59;4989638;28;20184;-65
2022/09/02 05:05:39;;;;;;;1.97;1.60;;;;;;;15.05;72.43;100129.78;4991690;28;20185;-65
2022/09/02 05:08:05;;;;;;;2.73;1.73;;;;;;;14.99;72.54;100136.22;4987174;28;20667;-66
2022/09/02 05:10:31;;;;;;;4.20;1.80;;;;;;;15.03;72.77;100134.22;4978408;28;20226;-66
2022/09/02 05:12:58;;;;;;;2.20;1.57;;;;;;;15.11;72.17;100138.88;5008345;28;20233;-66
2022/09/02 05:15:23;;;;;;;2.47;1.67;;;;;;;15.16;72.51;100141.94;4987131;28;20200;-66
2022/09/02 05:17:49;;;;;;;2.87;1.73;;;;;;;15.13;72.10;100140.41;4988130;28;20282;-66
2022/09/02 05:20:14;;;;;;;1.67;1.53;;;;;;;15.37;75.38;100128.34;4978794;28;20188;-60
2022/09/02 05:22:40;;;;;;;3.83;2.00;;;;;;;15.58;71.67;100137.13;4982684;28;20218;-63
2022/09/02 05:25:08;;;;;;;2.97;1.70;;;;;;;15.84;70.36;100130.91;4987363;28;20180;-64
2022/09/02 05:27:34;;;;;;;3.33;1.60;;;;;;;15.82;69.54;100125.84;4991001;28;20180;-63
2022/09/02 05:30:00;;;;;;;6.93;4.07;;;;;;;15.88;70.17;100140.94;4988398;28;20198;-64
2022/09/02 05:32:26;;;;;;;5.00;1.80;;;;;;;15.95;68.41;100131.75;4991680;28;20240;-64
2022/09/02 05:34:53;;;;;;;2.47;1.80;;;;;;;15.94;68.33;100137.88;4987209;28;20182;-61
2022/09/02 05:37:18;;;;;;;2.17;1.90;;;;;;;16.07;68.01;100140.34;4982592;28;20583;-63
2022/09/02 05:39:44;;;;;;;2.53;1.80;;;;;;;16.18;67.10;100143.91;4985006;28;20188;-63
2022/09/02 05:42:09;;;;;;;4.73;1.90;;;;;;;16.28;66.55;100147.44;4982158;28;20310;-63
2022/09/02 05:44:36;;;;;;;3.30;1.80;;;;;;;16.27;66.16;100138.84;4988335;28;20226;-64
2022/09/02 05:47:01;;;;;;;4.77;2.17;;;;;;;16.38;66.04;100137.97;4990413;28;20561;-64
2022/09/02 05:49:26;;;;;;;7.77;2.63;;;;;;;16.37;65.40;100138.94;4990087;28;20180;-64
2022/09/02 05:51:54;;;;;;;4.67;2.07;;;;;;;16.44;65.05;100139.28;4995294;28;20335;-63
2022/09/02 05:54:31;;;;;;;4.97;1.70;;;;;;;16.61;64.17;100137.94;4989694;28;20672;-63
2022/09/02 05:57:03;;;;;;;1.90;1.70;;;;;;;16.53;64.39;100140.31;4992193;28;20234;-63
2022/09/02 05:59:30;;;;;;;2.23;1.93;;;;;;;16.52;65.60;100143.84;4993885;28;20627;-63
2022/09/02 06:01:58;;;;;;;4.27;1.90;;;;;;;16.58;64.56;100136.41;4995416;28;20227;-64
2022/09/02 06:04:24;;;;;;;2.57;1.60;;;;;;;16.75;63.58;100137.66;4989555;28;20180;-63
2022/09/02 06:06:50;;;;;;;6.93;2.07;;;;;;;16.99;62.90;100133.25;4993471;28;20194;-63
2022/09/02 06:09:18;;;;;;;2.43;1.83;;;;;;;17.07;62.46;100131.66;4994970;28;20179;-65
2022/09/02 06:11:44;;;;;;;1.87;1.60;;;;;;;17.26;62.08;100127.56;4979825;28;20227;-63
2022/09/02 06:14:12;;;;;;;3.47;1.73;;;;;;;17.40;60.68;100129.84;4998266;28;20191;-63
2022/09/02 06:16:39;;;;;;;1.97;1.63;;;;;;;17.37;60.87;100135.28;4993228;28;20259;-64
2022/09/02 06:19:05;;;;;;;1.67;1.50;;;;;;;17.25;61.29;100133.72;4977296;28;20183;-62
2022/09/02 06:21:31;;;;;;;2.97;1.70;;;;;;;17.56;60.38;100132.00;4995513;28;20234;-63
2022/09/02 06:23:56;;;;;;;9.13;2.37;;;;;;;17.72;59.01;100131.56;4992970;28;20210;-68
2022/09/02 06:26:21;;;;;;;4.47;1.87;;;;;;;17.89;57.89;100132.69;4994181;28;20183;-63
2022/09/02 06:28:47;;;;;;;1.43;1.33;;;;;;;17.96;57.43;100137.41;4994501;28;20176;-64
2022/09/02 06:31:15;;;;;;;3.73;1.93;;;;;;;18.12;57.38;100140.38;4998038;28;20226;-64
2022/09/02 06:33:44;;;;;;;4.90;1.50;;;;;;;18.10;55.85;100134.47;4992948;28;20180;-63
2022/09/02 06:36:15;;;;;;;3.90;1.70;;;;;;;18.36;56.20;100136.59;4996125;28;20198;-63
2022/09/02 06:38:44;;;;;;;2.30;2.00;;;;;;;18.28;55.74;100132.03;4984788;28;20283;-63
2022/09/02 06:41:12;;;;;;;1.70;1.60;;;;;;;18.10;55.87;100129.25;4987400;28;20235;-63
2022/09/02 06:43:37;;;;;;;2.90;1.83;;;;;;;18.25;55.60;100132.31;4991764;28;20648;-63
2022/09/02 06:46:03;;;;;;;5.67;1.70;;;;;;;18.35;55.43;100134.94;4986974;28;20183;-64
2022/09/02 06:48:28;;;;;;;6.23;1.87;;;;;;;18.39;55.01;100136.31;4982894;28;20188;-64
2022/09/02 06:50:54;;;;;;;2.77;1.63;;;;;;;18.45;54.33;100134.97;4972015;28;20226;-63
2022/09/02 06:53:20;;;;;;;3.50;1.70;;;;;;;18.49;53.93;100131.13;4982267;28;20643;-63
2022/09/02 06:55:46;;;;;;;3.20;1.70;;;;;;;18.71;53.73;100140.50;4979511;28;20371;-64
2022/09/02 06:58:12;;;;;;;3.23;1.73;;;;;;;18.78;52.35;100139.00;4977730;28;20271;-64
2022/09/02 07:00:40;;;;;;;3.20;1.63;;;;;;;18.91;51.79;100130.94;4961660;28;20239;-65
2022/09/02 07:06:08;;;;;;;4.10;1.83;;;;;;;19.95;49.71;100129.38;4992570;28;20202;-63
2022/09/02 07:08:34;;;;;;;4.60;1.67;;;;;;;21.39;44.75;100124.22;4993696;28;20172;-65
2022/09/02 07:10:59;;;;;;;5.33;1.40;;;;;;;22.14;41.94;100129.88;4990621;28;20292;-66
2022/09/02 07:13:24;;;;;;;3.50;1.57;;;;;;;21.89;41.61;100133.22;4998506;28;20187;-65
2022/09/02 07:15:49;;;;;;;2.83;1.40;;;;;;;22.39;41.07;100134.25;4981901;28;20235;-64
2022/09/02 07:18:15;;;;;;;4.30;1.93;;;;;;;22.28;41.27;100124.03;4992526;28;20599;-64
2022/09/02 07:20:44;;;;;;;2.00;1.50;;;;;;;22.56;39.54;100129.03;4980778;28;20235;-64
2022/09/02 07:23:09;;;;;;;2.30;1.80;;;;;;;23.63;38.33;100126.38;4979597;28;20199;-65
2022/09/02 07:25:38;;;;;;;5.47;1.70;;;;;;;23.77;37.38;100130.09;4990321;28;20180;-65
2022/09/02 07:28:04;;;;;;;3.37;1.47;;;;;;;23.29;37.96;100134.50;4993158;28;20171;-64
2022/09/02 07:30:30;;;;;;;1.50;1.40;;;;;;;23.49;37.39;100135.78;4966697;28;20580;-65
2022/09/02 07:32:56;;;;;;;2.45;1.60;;;;;;;23.01;38.14;100145.31;4992645;28;20199;-65
2022/09/02 07:35:21;;;;;;;4.30;1.75;;;;;;;22.68;39.32;100140.84;4996626;28;20748;-65
2022/09/02 07:37:47;;;;;;;3.20;1.58;;;;;;;24.29;36.17;100136.66;4991055;28;20249;-64
2022/09/02 07:40:14;;;;;;;3.85;1.50;;;;;;;22.99;38.17;100140.22;4975076;28;20225;-65
2022/09/02 07:42:39;;;;;;;4.85;2.20;;;;;;;22.66;39.57;100137.59;4988675;28;20242;-64
2022/09/02 07:45:05;;;;;;;3.63;2.27;;;;;;;23.31;38.40;100132.53;4984784;28;20188;-65
2022/09/02 07:47:30;;;;;;;3.40;1.70;;;;;;;23.67;37.15;100138.19;4993067;28;20171;-64
2022/09/02 07:49:56;;;;;;;3.27;1.53;;;;;;;23.59;36.91;100137.38;4988571;28;20179;-64
2022/09/02 07:52:21;;;;;;;2.28;1.48;;;;;;;23.97;36.69;100127.94;4993246;28;20651;-64
2022/09/02 07:54:46;;;;;;;2.55;1.60;;;;;;;24.86;34.59;100134.66;4987814;28;20230;-65
2022/09/02 07:57:12;;;;;;;2.65;1.70;;;;;;;24.55;34.90;100130.25;4986454;28;20226;-64
2022/09/02 07:59:37;;;;;;;4.07;1.73;;;;;;;23.80;36.21;100131.56;4992957;28;20685;-65
2022/09/02 08:02:02;;;;;;;5.60;1.65;;;;;;;24.18;36.29;100129.97;5000734;28;20288;-64
2022/09/02 08:04:28;;;;;;;9.73;2.38;;;;;;;23.90;36.55;100124.31;4990629;28;20246;-65
2022/09/02 08:06:54;;;;;;;2.05;1.45;;;;;;;23.44;37.63;100132.00;4992818;28;20198;-64
2022/09/02 08:09:20;;;;;;;2.50;1.70;;;;;;;23.37;37.76;100121.38;4992458;28;20211;-64
2022/09/02 08:11:48;;;;;;;1.70;1.42;;;;;;;24.15;36.22;100116.34;4996041;28;20241;-65
2022/09/02 08:14:24;;;;;;;3.55;1.92;;;;;;;24.85;34.60;100127.75;5000041;28;20199;-65
2022/09/02 08:16:50;;;;;;;6.38;1.40;;;;;;;24.98;34.98;100127.16;4992806;28;20569;-65
2022/09/02 08:19:15;;;;;;;2.80;2.03;;;;;;;25.70;34.04;100131.09;4987694;28;20181;-64
2022/09/02 08:21:41;;;;;;;4.28;1.85;;;;;;;25.75;33.07;100134.00;4982670;28;20584;-64
2022/09/02 08:24:06;;;;;;;3.70;1.70;;;;;;;26.39;32.99;100127.25;4994749;28;20661;-64
2022/09/02 08:26:35;;;;;;;1.67;1.58;;;;;;;27.42;31.53;100123.50;4990446;28;20247;-63
2022/09/02 08:29:01;;;;;;;4.50;1.92;;;;;;;28.54;29.55;100133.88;4992316;28;20183;-64
2022/09/02 08:31:27;;;;;;;1.75;1.45;;;;;;;26.94;31.08;100132.09;5001092;28;20225;-66
2022/09/02 08:33:52;;;;;;;4.57;1.45;;;;;;;28.86;28.41;100134.16;4990096;28;20217;-77
2022/09/02 08:36:17;;;;;;;2.22;1.60;;;;;;;27.06;30.70;100132.34;4992749;28;20269;-74
2022/09/02 08:38:43;;;;;;;2.47;1.67;;;;;;;28.98;28.55;100118.50;5004498;28;20253;-75
2022/09/02 08:41:24;;;;;;;3.42;1.80;;;;;;;29.20;28.40;100126.19;4992600;28;20246;-78
2022/09/02 08:43:52;;;;;;;2.75;1.20;;;;;;;28.46;28.97;100126.97;4977583;28;20231;-76
2022/09/02 08:46:24;;;;;;;4.78;1.60;;;;;;;26.99;30.95;100123.56;5000602;28;20206;-76
2022/09/02 08:48:58;;;;;;;3.72;1.80;;;;;;;27.38;30.74;100127.50;4994502;28;20241;-76
2022/09/02 08:51:47;;;;;;;3.78;1.75;;;;;;;28.20;29.23;100119.00;4982225;28;20317;-75
2022/09/02 08:54:36;;;;;;;2.33;1.40;;;;;;;28.16;29.40;100129.16;4988757;28;20270;-76
2022/09/02 08:57:02;;;;;;;2.25;1.45;;;;;;;26.80;31.01;100120.56;4993885;28;20196;-73
2022/09/02 08:59:30;;;;;;;3.90;1.65;;;;;;;27.40;30.51;100117.59;4984471;28;20184;-77
2022/09/02 09:02:12;;;;;;;4.15;1.40;;;;;;;26.90;31.03;100113.16;4968430;28;20318;-64
2022/09/02 09:04:50;;;;;;;1.77;1.35;;;;;;;26.97;31.16;100122.97;4991299;28;20275;-70
2022/09/02 09:07:40;;;;;;;2.65;1.35;;;;;;;26.82;31.40;100121.22;4988056;28;20627;-73
2022/09/02 09:10:15;;;;;;;2.65;1.23;;;;;;;27.58;29.45;100103.06;4982640;28;20188;-76
2022/09/02 09:12:59;;;;;;;7.45;1.50;;;;;;;27.29;29.84;100108.34;4989596;28;20190;-74
2022/09/02 09:15:39;;;;;;;3.00;1.60;;;;;;;27.51;29.82;100111.78;4991360;28;20210;-76
2022/09/02 09:18:09;;;;;;;4.47;1.50;;;;;;;27.31;30.32;100110.81;4990134;28;20186;-80
2022/09/02 09:20:40;;;;;;;4.15;1.40;;;;;;;28.94;27.72;100102.19;4980477;28;20242;-81
2022/09/02 09:23:27;;;;;;;1.63;1.10;;;;;;;29.78;26.47;100099.78;4979484;28;20555;-78
2022/09/02 09:25:58;;;;;;;2.92;1.35;;;;;;;28.91;27.10;100099.94;4990767;28;20237;-73
2022/09/02 09:28:24;;;;;;;2.33;1.58;;;;;;;28.37;27.85;100103.56;4987560;28;20246;-71
2022/09/02 09:30:49;;;;;;;3.90;1.05;;;;;;;27.55;28.99;100091.06;4979959;28;20636;-75
2022/09/02 11:11:46;;;;;;;3.60;1.40;;;;;;;24.00;29.60;99998.03;4963628;28;20245;-71
2022/09/02 11:14:25;;;;;;;2.47;1.20;;;;;;;23.83;29.76;99994.69;4970137;28;20192;-74
2022/09/02 11:17:07;;;;;;;3.70;1.10;;;;;;;23.62;29.45;99980.34;4966272;28;20231;-66
2022/09/02 11:19:39;;;;;;;7.37;1.07;;;;;;;23.57;30.54;99984.44;4961533;28;20652;-68
2022/09/02 11:22:23;;;;;;;2.10;1.13;;;;;;;23.30;30.51;99982.13;4933593;28;20259;-67
2022/09/02 11:24:59;;;;;;;1.27;0.97;;;;;;;23.51;29.81;99971.03;4950190;28;20653;-67
2022/09/02 11:27:39;;;;;;;2.57;1.00;;;;;;;23.65;30.01;99968.66;4942227;29;20188;-68
2022/09/02 11:30:12;;;;;;;1.27;1.17;;;;;;;23.88;31.17;99962.63;4928232;28;20189;-70
2022/09/02 11:32:47;;;;;;;1.70;1.10;;;;;;;24.00;29.85;99974.38;4931253;28;20661;-70
2022/09/02 11:35:26;;;;;;;1.77;1.10;;;;;;;23.68;30.75;99968.34;4952221;29;20229;-70
2022/09/02 11:37:59;;;;;;;4.87;1.23;;;;;;;23.67;30.44;99962.25;4950816;29;20205;-74
2022/09/02 11:40:31;;;;;;;1.60;1.03;;;;;;;23.60;29.84;99958.69;4936076;28;20260;-73
2022/09/02 11:43:13;;;;;;;1.93;1.13;;;;;;;23.60;30.71;99961.31;4975090;28;20581;-68
2022/09/02 11:45:55;;;;;;;1.87;1.10;;;;;;;23.77;30.80;99962.03;4952211;29;20264;-69
2022/09/02 11:48:21;;;;;;;5.23;1.23;;;;;;;23.95;30.70;99960.97;4951743;29;20189;-70
2022/09/02 11:50:59;;;;;;;3.37;1.27;;;;;;;23.67;30.54;99954.38;4949641;28;20223;-75
2022/09/02 11:53:35;;;;;;;3.37;1.37;;;;;;;23.79;31.53;99951.34;4967280;28;20636;-76
2022/09/02 11:56:02;;;;;;;5.37;2.60;;;;;;;23.68;30.86;99949.97;4963218;28;20612;-76
2022/09/02 11:58:32;;;;;;;1.47;1.10;;;;;;;23.67;30.65;99953.56;4947948;29;20217;-73
2022/09/02 12:01:26;;;;;;;1.50;1.17;;;;;;;23.51;30.62;99955.28;4950663;28;20227;-73
2022/09/02 12:03:57;;;;;;;2.73;1.20;;;;;;;23.64;30.55;99946.03;4952302;28;20292;-68
2022/09/02 12:06:23;;;;;;;9.80;1.40;;;;;;;23.48;30.70;99939.88;4947289;29;20256;-71
2022/09/02 12:08:56;;;;;;;1.20;0.90;;;;;;;23.46;31.20;99935.81;4973705;28;20681;-62
2022/09/02 12:11:40;;;;;;;2.07;1.20;;;;;;;23.60;31.08;99942.94;4960077;28;20227;-61
2022/09/02 12:14:18;;;;;;;2.03;1.53;;;;;;;23.46;31.48;99944.47;4964095;28;20224;-62
2022/09/02 12:17:01;;;;;;;5.33;1.40;;;;;;;23.58;30.49;99944.09;4984259;28;20200;-61
2022/09/02 12:19:28;;;;;;;1.83;1.30;;;;;;;23.67;31.15;99927.31;4959829;28;20527;-62
2022/09/02 12:22:16;;;;;;;5.10;1.23;;;;;;;23.47;30.90;99943.50;4986060;28;20703;-64
2022/09/02 12:24:56;;;;;;;3.50;1.07;;;;;;;23.72;31.22;99942.56;4968923;28;20270;-64
2022/09/02 12:27:27;;;;;;;2.10;1.30;;;;;;;23.62;31.05;99942.78;4967631;28;20192;-66
2022/09/02 12:29:54;;;;;;;1.73;1.10;;;;;;;23.46;31.02;99941.84;4964083;28;20200;-63
2022/09/02 12:33:03;;;;;;;2.43;1.00;;;;;;;23.67;31.01;99924.69;4977725;28;20245;-65
2022/09/02 12:35:48;;;;;;;2.70;1.23;;;;;;;23.87;30.99;99929.50;5028136;28;20578;-68
2022/09/02 12:38:14;;;;;;;1.27;0.90;;;;;;;23.66;31.10;99913.34;5009735;28;20194;-69
2022/09/02 12:40:57;;;;;;;1.43;0.90;;;;;;;23.25;31.27;99916.22;5016921;28;20669;-63
2022/09/02 12:43:29;;;;;;;3.47;1.23;;;;;;;23.35;31.35;99919.44;5029966;28;20645;-60
2022/09/02 12:46:05;;;;;;;3.73;1.00;;;;;;;23.62;30.66;99914.69;5013858;28;20621;-61
2022/09/02 12:48:43;;;;;;;4.43;1.07;;;;;;;23.79;30.47;99909.31;5029494;28;20213;-63
2022/09/02 12:51:08;;;;;;;3.60;1.20;;;;;;;23.63;29.60;99908.47;5019392;28;20225;-65
2022/09/02 12:53:36;;;;;;;7.03;0.90;;;;;;;23.53;29.33;99897.38;5021676;28;20190;-63
2022/09/02 12:56:08;;;;;;;3.23;1.17;;;;;;;23.74;30.40;99903.78;5028985;28;20205;-63
2022/09/02 12:58:54;;;;;;;3.23;1.03;;;;;;;23.81;30.03;99896.84;5029342;28;20256;-63
2022/09/02 13:01:28;;;;;;;2.80;1.20;;;;;;;23.69;29.62;99901.69;5019456;28;20222;-63
2022/09/02 13:04:05;;;;;;;4.37;1.20;;;;;;;23.68;30.00;99890.38;5029595;28;20733;-63
2022/09/02 13:07:01;;;;;;;2.47;1.10;;;;;;;23.71;29.47;99889.19;5007028;28;20283;-65
2022/09/02 13:09:44;;;;;;;3.10;1.23;;;;;;;23.76;29.64;99881.63;4996830;28;20191;-63
2022/09/02 13:12:29;;;;;;;1.97;1.07;;;;;;;23.96;29.20;99883.81;5001080;28;20264;-63
2022/09/02 13:15:06;;;;;;;2.00;1.00;;;;;;;24.12;29.35;99881.03;5010940;28;20176;-63
2022/09/02 13:17:34;;;;;;;16.77;2.90;;;;;;;23.86;30.00;99878.75;5011061;28;20566;-62